createdAt,value
2019-03-19T00:00:27.512Z,3.72
2019-03-19T00:01:17.140Z,5.95
2019-03-19T00:02:06.484Z,13.90
2019-03-19T00:02:55.987Z,17.12
2019-03-19T00:03:46.019Z,5.95
2019-03-19T00:04:36.848Z,15.75
2019-03-19T00:05:26.061Z,23.47
2019-03-19T00:06:15.995Z,15.65
2019-03-19T00:07:05.611Z,3.42
2019-03-19T00:07:56.895Z,3.70
2019-03-19T00:08:46.457Z,2.15
2019-03-19T00:09:35.805Z,1.92
2019-03-19T00:10:26.117Z,2.35
2019-03-19T00:11:15.647Z,2.60
2019-03-19T00:12:05.402Z,2.20
2019-03-19T00:12:54.851Z,2.52
2019-03-19T00:13:45.370Z,1.98
2019-03-19T00:14:34.970Z,2.20
2019-03-19T00:15:25.576Z,2.00
2019-03-19T00:16:15.955Z,1.92
2019-03-19T00:17:06.430Z,1.72
2019-03-19T00:17:57.126Z,1.90
2019-03-19T00:18:46.716Z,1.55
2019-03-19T00:19:36.467Z,3.10
2019-03-19T00:20:26.830Z,1.67
2019-03-19T00:21:16.355Z,6.40
2019-03-19T00:22:05.850Z,3.15
2019-03-19T00:22:57.402Z,2.50
2019-03-19T00:23:48.339Z,3.33
2019-03-19T00:24:37.801Z,2.80
2019-03-19T00:25:30.230Z,5.08
2019-03-19T00:26:16.905Z,2.30
2019-03-19T00:27:06.725Z,3.25
2019-03-19T00:27:57.088Z,2.40
2019-03-19T00:28:46.874Z,2.10
2019-03-19T00:29:36.673Z,4.62
2019-03-19T00:30:26.603Z,2.67
2019-03-19T00:31:16.925Z,4.62
2019-03-19T00:32:07.205Z,3.87
2019-03-19T00:32:58.656Z,2.55
2019-03-19T00:33:49.076Z,4.42
2019-03-19T00:34:38.317Z,2.35
2019-03-19T00:35:27.858Z,1.95
2019-03-19T00:36:18.479Z,1.70
2019-03-19T00:37:08.605Z,1.80
2019-03-19T00:37:58.253Z,1.75
2019-03-19T00:38:48.085Z,1.85
2019-03-19T00:39:37.819Z,1.57
2019-03-19T00:40:28.320Z,3.22
2019-03-19T00:41:18.375Z,1.60
2019-03-19T00:42:08.435Z,1.75
2019-03-19T00:42:57.974Z,3.75
2019-03-19T00:43:48.151Z,1.87
2019-03-19T00:44:37.957Z,4.03
2019-03-19T00:45:27.504Z,1.85
2019-03-19T00:46:17.586Z,3.67
2019-03-19T00:47:07.579Z,3.10
2019-03-19T00:47:57.954Z,1.90
2019-03-19T00:48:47.909Z,2.33
2019-03-19T00:49:37.866Z,2.17
2019-03-19T00:50:27.804Z,2.35
2019-03-19T00:51:17.682Z,1.65
2019-03-19T00:52:07.093Z,4.17
2019-03-19T00:52:57.839Z,1.75
2019-03-19T00:53:47.459Z,2.35
2019-03-19T00:54:37.377Z,1.95
2019-03-19T00:55:27.100Z,2.30
2019-03-19T00:56:16.794Z,2.15
2019-03-19T00:57:07.665Z,2.62
2019-03-19T00:57:57.151Z,1.80
2019-03-19T00:58:46.980Z,2.62
2019-03-19T00:59:36.527Z,2.83
2019-03-19T01:00:26.698Z,3.02
2019-03-19T01:01:16.123Z,5.03
2019-03-19T01:02:06.074Z,1.92
2019-03-19T01:02:55.700Z,2.00
2019-03-19T01:03:45.382Z,2.15
2019-03-19T01:04:35.460Z,2.10
2019-03-19T01:05:25.097Z,1.70
2019-03-19T01:06:15.311Z,1.82
2019-03-19T01:07:05.430Z,2.98
2019-03-19T01:07:55.792Z,2.87
2019-03-19T01:08:45.700Z,1.98
2019-03-19T01:09:35.811Z,3.12
2019-03-19T01:10:25.746Z,2.25
2019-03-19T01:11:16.647Z,1.47
2019-03-19T01:12:06.002Z,2.60
2019-03-19T01:12:56.146Z,1.85
2019-03-19T01:13:45.838Z,1.98
2019-03-19T01:14:35.858Z,1.77
2019-03-19T01:15:26.029Z,2.65
2019-03-19T01:16:16.126Z,1.82
2019-03-19T01:17:05.973Z,4.08
2019-03-19T01:17:56.551Z,2.77
2019-03-19T01:18:46.560Z,1.90
2019-03-19T01:19:36.759Z,2.12
2019-03-19T01:20:26.648Z,1.70
2019-03-19T01:21:16.414Z,1.77
2019-03-19T01:22:05.918Z,1.80
2019-03-19T01:22:55.880Z,7.45
2019-03-19T01:23:45.805Z,2.08
2019-03-19T01:24:35.788Z,2.25
2019-03-19T01:25:26.086Z,2.12
2019-03-19T01:26:15.818Z,1.70
2019-03-19T01:27:06.431Z,2.00
2019-03-19T01:27:56.711Z,2.02
2019-03-19T01:28:46.634Z,2.77
2019-03-19T01:29:36.728Z,1.72
2019-03-19T01:30:26.971Z,2.33
2019-03-19T01:31:17.080Z,1.77
2019-03-19T01:32:06.811Z,1.92
2019-03-19T01:32:56.360Z,2.22
2019-03-19T01:33:46.639Z,2.95
2019-03-19T01:34:36.008Z,2.10
2019-03-19T01:35:25.828Z,2.00
2019-03-19T01:36:15.585Z,2.60
2019-03-19T01:37:05.220Z,2.00
2019-03-19T01:37:55.196Z,1.92
2019-03-19T01:38:44.612Z,3.52
2019-03-19T01:39:34.826Z,2.12
2019-03-19T01:40:24.435Z,2.17
2019-03-19T01:41:14.620Z,2.12
2019-03-19T01:42:04.560Z,2.17
2019-03-19T01:42:54.305Z,2.35
2019-03-19T01:43:44.567Z,2.10
2019-03-19T01:44:34.998Z,1.90
2019-03-19T01:45:24.380Z,1.80
2019-03-19T01:46:14.614Z,1.90
2019-03-19T01:47:04.206Z,5.30
2019-03-19T01:47:53.858Z,3.90
2019-03-19T01:48:43.867Z,2.20
2019-03-19T01:49:33.760Z,2.15
2019-03-19T01:50:23.662Z,2.27
2019-03-19T01:51:13.514Z,2.37
2019-03-19T01:52:03.530Z,2.67
2019-03-19T01:52:53.411Z,4.30
2019-03-19T01:53:43.033Z,2.10
2019-03-19T01:54:34.328Z,2.17
2019-03-19T01:55:25.632Z,2.52
2019-03-19T01:56:13.822Z,1.98
2019-03-19T01:57:03.637Z,3.22
2019-03-19T01:57:53.523Z,1.92
2019-03-19T01:58:43.340Z,1.80
2019-03-19T01:59:34.000Z,1.90
2019-03-19T02:00:23.180Z,1.98
2019-03-19T02:01:13.415Z,1.95
2019-03-19T02:02:02.794Z,4.22
2019-03-19T02:02:52.343Z,2.05
2019-03-19T02:03:42.087Z,2.70
2019-03-19T02:04:31.665Z,1.92
2019-03-19T02:05:21.912Z,2.10
2019-03-19T02:06:12.185Z,2.05
2019-03-19T02:07:02.460Z,2.00
2019-03-19T02:07:52.251Z,3.05
2019-03-19T02:08:41.989Z,1.75
2019-03-19T02:09:32.335Z,1.80
2019-03-19T02:10:22.147Z,2.10
2019-03-19T02:11:11.545Z,1.85
2019-03-19T02:12:01.033Z,1.82
2019-03-19T02:12:50.548Z,1.80
2019-03-19T02:13:40.367Z,2.05
2019-03-19T02:14:30.638Z,2.92
2019-03-19T02:15:21.208Z,1.82
2019-03-19T02:16:11.036Z,2.12
2019-03-19T02:17:02.902Z,1.80
2019-03-19T02:17:52.788Z,3.37
2019-03-19T02:18:42.451Z,2.10
2019-03-19T02:19:31.929Z,3.52
2019-03-19T02:20:22.495Z,1.75
2019-03-19T02:21:13.146Z,2.45
2019-03-19T02:22:03.976Z,2.10
2019-03-19T02:22:54.149Z,3.02
2019-03-19T02:23:43.813Z,3.52
2019-03-19T02:24:33.043Z,2.00
2019-03-19T02:25:22.535Z,4.92
2019-03-19T02:26:16.656Z,2.87
2019-03-19T02:27:02.284Z,4.28
2019-03-19T02:27:51.810Z,3.20
2019-03-19T02:28:41.606Z,3.85
2019-03-19T02:29:31.250Z,3.62
2019-03-19T02:30:20.566Z,4.20
2019-03-19T02:31:10.437Z,3.83
2019-03-19T02:32:00.573Z,3.37
2019-03-19T02:32:50.363Z,4.33
2019-03-19T02:33:39.977Z,2.27
2019-03-19T02:34:29.583Z,2.95
2019-03-19T02:35:19.726Z,2.95
2019-03-19T02:36:09.423Z,3.47
2019-03-19T02:36:59.102Z,2.25
2019-03-19T02:37:49.438Z,2.42
2019-03-19T02:38:38.974Z,2.15
2019-03-19T02:39:28.974Z,2.65
2019-03-19T02:40:18.951Z,2.17
2019-03-19T02:41:08.379Z,3.77
2019-03-19T02:41:57.949Z,3.02
2019-03-19T02:42:47.401Z,2.60
2019-03-19T02:43:37.530Z,2.85
2019-03-19T02:44:27.947Z,2.85
2019-03-19T02:45:18.590Z,2.98
2019-03-19T02:46:08.235Z,2.98
2019-03-19T02:46:58.986Z,3.37
2019-03-19T02:47:49.222Z,2.92
2019-03-19T02:48:39.507Z,2.80
2019-03-19T02:49:29.354Z,2.92
2019-03-19T02:50:19.556Z,3.52
2019-03-19T02:51:09.344Z,3.15
2019-03-19T02:51:59.266Z,2.98
2019-03-19T02:52:49.232Z,4.72
2019-03-19T02:53:39.309Z,3.05
2019-03-19T02:54:28.765Z,2.47
2019-03-19T02:55:18.159Z,3.98
2019-03-19T02:56:08.074Z,3.90
2019-03-19T02:56:57.852Z,3.37
2019-03-19T02:57:47.425Z,2.95
2019-03-19T02:58:37.695Z,2.60
2019-03-19T02:59:27.331Z,3.20
2019-03-19T03:00:16.736Z,2.95
2019-03-19T03:01:06.691Z,5.05
2019-03-19T03:01:56.169Z,4.55
2019-03-19T03:02:46.658Z,4.22
2019-03-19T03:03:35.894Z,3.00
2019-03-19T03:04:25.382Z,2.92
2019-03-19T03:05:20.122Z,4.00
2019-03-19T03:06:12.917Z,2.92
2019-03-19T03:07:03.821Z,4.53
2019-03-19T03:07:53.537Z,4.28
2019-03-19T03:08:44.224Z,3.17
2019-03-19T03:09:34.201Z,3.35
2019-03-19T03:10:23.652Z,3.25
2019-03-19T03:11:13.756Z,3.45
2019-03-19T03:12:06.820Z,3.33
2019-03-19T03:13:00.016Z,3.25
2019-03-19T03:13:52.165Z,3.17
2019-03-19T03:14:42.362Z,3.15
2019-03-19T03:15:34.480Z,2.90
2019-03-19T03:16:24.872Z,3.10
2019-03-19T03:17:14.604Z,3.33
2019-03-19T03:18:05.425Z,3.72
2019-03-19T03:18:55.088Z,3.30
2019-03-19T03:19:45.116Z,4.03
2019-03-19T03:20:37.314Z,5.12
2019-03-19T03:21:30.289Z,4.33
2019-03-19T03:22:24.390Z,3.10
2019-03-19T03:23:14.574Z,3.02
2019-03-19T03:24:17.715Z,3.10
2019-03-19T03:25:07.703Z,5.08
2019-03-19T03:25:57.397Z,3.77
2019-03-19T03:26:48.754Z,5.28
2019-03-19T03:27:37.220Z,3.47
2019-03-19T03:28:27.067Z,3.00
2019-03-19T03:29:16.628Z,3.55
2019-03-19T03:30:06.923Z,5.37
2019-03-19T03:30:56.529Z,3.50
2019-03-19T03:31:46.259Z,4.30
2019-03-19T03:32:36.570Z,3.20
2019-03-19T03:33:26.087Z,4.72
2019-03-19T03:34:16.389Z,7.15
2019-03-19T03:35:06.149Z,4.60
2019-03-19T03:35:56.026Z,3.80
2019-03-19T03:36:46.436Z,5.15
2019-03-19T03:37:36.127Z,4.15
2019-03-19T03:38:26.381Z,5.92
2019-03-19T03:39:16.553Z,6.15
2019-03-19T03:40:11.439Z,5.58
2019-03-19T03:41:01.624Z,4.25
2019-03-19T03:41:51.117Z,4.55
2019-03-19T03:42:45.095Z,5.47
2019-03-19T03:43:37.347Z,5.45
2019-03-19T03:44:27.546Z,8.33
2019-03-19T03:45:18.507Z,4.35
2019-03-19T03:46:08.513Z,6.55
2019-03-19T03:46:58.283Z,5.65
2019-03-19T03:47:48.829Z,4.72
2019-03-19T03:48:40.686Z,9.38
2019-03-19T03:50:00.551Z,6.08
2019-03-19T03:50:50.614Z,5.85
2019-03-19T03:51:40.771Z,5.40
2019-03-19T03:52:31.676Z,7.35
2019-03-19T03:53:23.512Z,7.30
2019-03-19T03:54:13.961Z,5.95
2019-03-19T03:55:03.632Z,8.35
2019-03-19T03:55:54.098Z,6.65
2019-03-19T03:56:44.227Z,7.97
2019-03-19T03:57:34.548Z,5.60
2019-03-19T03:58:27.097Z,6.12
2019-03-19T03:59:16.987Z,6.20
2019-03-19T04:00:08.066Z,8.00
2019-03-19T04:00:57.869Z,6.55
2019-03-19T04:01:47.701Z,10.03
2019-03-19T04:02:37.981Z,6.20
2019-03-19T04:03:28.153Z,9.35
2019-03-19T04:04:18.540Z,7.15
2019-03-19T04:05:08.722Z,6.03
2019-03-19T04:05:59.327Z,6.40
2019-03-19T04:06:50.675Z,7.92
2019-03-19T04:07:40.277Z,8.03
2019-03-19T04:08:29.879Z,9.18
2019-03-19T04:09:20.443Z,7.20
2019-03-19T04:10:25.061Z,5.92
2019-03-19T04:11:14.950Z,6.50
2019-03-19T04:12:04.803Z,9.00
2019-03-19T04:12:54.464Z,6.55
2019-03-19T04:14:13.517Z,7.22
2019-03-19T04:15:07.296Z,8.28
2019-03-19T04:15:57.960Z,9.45
2019-03-19T04:16:48.481Z,7.78
2019-03-19T04:17:38.555Z,7.90
2019-03-19T04:18:28.416Z,9.03
2019-03-19T04:19:18.101Z,10.45
2019-03-19T04:20:08.178Z,11.22
2019-03-19T04:20:57.749Z,11.97
2019-03-19T04:21:47.406Z,11.97
2019-03-19T04:22:37.628Z,9.53
2019-03-19T04:23:28.325Z,10.55
2019-03-19T04:24:21.810Z,9.43
2019-03-19T04:26:27.843Z,11.88
2019-03-19T04:27:22.039Z,8.55
2019-03-19T04:28:20.467Z,11.78
2019-03-19T04:29:10.106Z,11.33
2019-03-19T04:30:22.275Z,15.10
2019-03-19T04:31:19.621Z,11.22
2019-03-19T04:33:19.637Z,13.28
2019-03-19T04:34:29.121Z,13.75
2019-03-19T04:35:30.689Z,12.95
2019-03-19T04:36:45.004Z,8.58
2019-03-19T04:37:37.045Z,9.60
2019-03-19T04:38:30.936Z,12.40
2019-03-19T04:39:32.901Z,10.05
2019-03-19T04:42:56.650Z,15.45
2019-03-19T04:43:54.446Z,11.85
2019-03-19T04:44:44.394Z,11.28
2019-03-19T04:45:41.210Z,12.47
2019-03-19T04:46:39.173Z,12.15
2019-03-19T04:47:57.203Z,8.33
2019-03-19T04:48:49.221Z,11.85
2019-03-19T04:49:45.181Z,10.65
2019-03-19T04:50:35.404Z,8.00
2019-03-19T04:51:24.996Z,11.28
2019-03-19T04:52:14.428Z,9.40
2019-03-19T04:53:04.250Z,7.95
2019-03-19T04:53:54.050Z,10.63
2019-03-19T04:54:43.554Z,7.42
2019-03-19T04:55:33.347Z,8.83
2019-03-19T04:56:23.118Z,12.05
2019-03-19T04:57:12.815Z,9.68
2019-03-19T04:58:03.207Z,9.15
2019-03-19T04:58:52.799Z,9.28
2019-03-19T04:59:42.297Z,9.78
2019-03-19T05:00:31.942Z,8.75
2019-03-19T05:01:21.920Z,5.90
2019-03-19T05:02:11.965Z,7.83
2019-03-19T05:03:01.555Z,6.08
2019-03-19T05:03:52.100Z,7.22
2019-03-19T05:04:47.523Z,7.55
2019-03-19T05:05:39.100Z,6.47
2019-03-19T05:06:28.677Z,5.92
2019-03-19T05:07:18.598Z,11.85
2019-03-19T05:08:09.893Z,7.92
2019-03-19T05:08:59.300Z,8.55
2019-03-19T05:09:49.694Z,8.73
2019-03-19T05:10:45.681Z,7.85
2019-03-19T05:11:35.659Z,8.25
2019-03-19T05:12:25.757Z,13.32
2019-03-19T05:13:16.274Z,8.53
2019-03-19T05:14:05.983Z,9.63
2019-03-19T05:14:56.118Z,16.15
2019-03-19T05:15:45.971Z,17.73
2019-03-19T05:16:35.716Z,9.48
2019-03-19T05:17:25.970Z,7.03
2019-03-19T05:18:17.692Z,10.18
2019-03-19T05:19:11.834Z,11.43
2019-03-19T05:20:01.568Z,9.05
2019-03-19T05:20:51.073Z,10.63
2019-03-19T05:21:40.779Z,8.70
2019-03-19T05:22:31.097Z,10.90
2019-03-19T05:23:21.823Z,17.67
2019-03-19T05:24:12.555Z,18.77
2019-03-19T05:25:02.383Z,13.85
2019-03-19T05:25:52.163Z,19.67
2019-03-19T05:26:41.772Z,16.25
2019-03-19T05:27:37.249Z,15.05
2019-03-19T05:28:21.370Z,11.88
2019-03-19T05:30:30.925Z,20.60
2019-03-19T05:31:21.008Z,21.33
2019-03-19T05:32:10.857Z,42.62
2019-03-19T05:33:00.918Z,38.23
2019-03-19T05:33:51.219Z,49.45
2019-03-19T05:34:40.686Z,79.65
2019-03-19T05:35:30.608Z,77.62
2019-03-19T05:36:20.492Z,69.22
2019-03-19T05:37:10.306Z,65.65
2019-03-19T05:37:59.962Z,79.72
2019-03-19T05:38:50.125Z,77.10
2019-03-19T05:39:39.962Z,74.70
2019-03-19T05:40:30.385Z,67.55
2019-03-19T05:41:21.129Z,67.10
2019-03-19T05:42:11.387Z,55.48
2019-03-19T05:43:01.755Z,57.27
2019-03-19T05:43:52.278Z,51.77
2019-03-19T05:44:42.563Z,49.45
2019-03-19T05:45:32.378Z,39.03
2019-03-19T05:46:22.617Z,45.55
2019-03-19T05:47:13.000Z,46.77
2019-03-19T05:48:02.745Z,36.33
2019-03-19T05:48:52.760Z,32.08
2019-03-19T05:49:42.706Z,38.13
2019-03-19T05:50:32.023Z,38.48
2019-03-19T05:51:22.837Z,33.33
2019-03-19T05:52:12.727Z,34.23
2019-03-19T05:53:01.923Z,31.97
2019-03-19T05:53:51.840Z,29.60
2019-03-19T05:54:42.132Z,26.25
2019-03-19T05:55:32.451Z,30.37
2019-03-19T05:56:22.732Z,27.22
2019-03-19T05:57:12.334Z,22.20
2019-03-19T05:58:03.153Z,25.32
2019-03-19T05:58:52.722Z,23.77
2019-03-19T05:59:44.036Z,21.60
2019-03-19T06:00:33.521Z,16.25
2019-03-19T06:01:23.772Z,21.62
2019-03-19T06:02:13.728Z,20.05
2019-03-19T06:03:03.513Z,18.50
2019-03-19T06:03:53.369Z,25.23
2019-03-19T06:04:44.221Z,31.35
2019-03-19T06:05:34.299Z,39.95
2019-03-19T06:06:24.344Z,43.38
2019-03-19T06:07:13.868Z,51.65
2019-03-19T06:08:04.018Z,53.98
2019-03-19T06:08:53.676Z,46.90
2019-03-19T06:09:43.395Z,38.58
2019-03-19T06:10:33.428Z,36.05
2019-03-19T06:11:23.159Z,32.75
2019-03-19T06:12:12.776Z,27.77
2019-03-19T06:13:03.439Z,29.07
2019-03-19T06:13:53.557Z,30.65
2019-03-19T06:14:43.566Z,23.67
2019-03-19T06:15:34.877Z,25.17
2019-03-19T06:16:24.363Z,20.02
2019-03-19T06:17:14.951Z,20.43
2019-03-19T06:18:05.809Z,18.62
2019-03-19T06:18:55.294Z,19.32
2019-03-19T06:19:45.425Z,18.85
2019-03-19T06:20:35.125Z,19.65
2019-03-19T06:21:24.865Z,21.52
2019-03-19T06:22:14.133Z,27.98
2019-03-19T06:23:03.699Z,33.70
2019-03-19T06:23:53.373Z,25.50
2019-03-19T06:24:43.485Z,30.40
2019-03-19T06:25:32.857Z,57.85
2019-03-19T06:26:22.570Z,71.97
2019-03-19T06:27:12.159Z,24.25
2019-03-19T06:28:02.793Z,28.77
2019-03-19T06:28:52.576Z,20.20
2019-03-19T06:29:42.652Z,33.10
2019-03-19T06:30:33.505Z,36.73
2019-03-19T06:31:23.604Z,22.70
2019-03-19T06:32:13.290Z,19.57
2019-03-19T06:33:02.751Z,17.62
2019-03-19T06:33:52.767Z,18.30
2019-03-19T06:34:42.174Z,16.67
2019-03-19T06:35:32.204Z,19.42
2019-03-19T06:36:22.205Z,31.87
2019-03-19T06:37:11.385Z,30.23
2019-03-19T06:38:02.883Z,26.85
2019-03-19T06:38:53.004Z,24.27
2019-03-19T06:39:43.396Z,21.60
2019-03-19T06:40:32.664Z,18.37
2019-03-19T06:41:23.191Z,15.15
2019-03-19T06:42:12.732Z,18.23
2019-03-19T06:43:02.252Z,14.95
2019-03-19T06:43:52.460Z,14.03
2019-03-19T06:44:42.755Z,12.47
2019-03-19T06:45:33.701Z,14.47
2019-03-19T06:46:23.744Z,17.48
2019-03-19T06:47:13.996Z,17.02
2019-03-19T06:48:04.058Z,18.17
2019-03-19T06:48:54.707Z,16.65
2019-03-19T06:49:45.119Z,15.83
2019-03-19T06:50:44.735Z,11.85
2019-03-19T06:51:25.381Z,14.38
2019-03-19T06:52:14.519Z,15.40
2019-03-19T06:53:04.679Z,13.88
2019-03-19T06:53:54.494Z,19.35
2019-03-19T06:54:44.867Z,13.93
2019-03-19T06:55:34.705Z,15.03
2019-03-19T06:56:24.900Z,24.65
2019-03-19T06:57:14.774Z,16.23
2019-03-19T06:58:10.959Z,17.55
2019-03-19T06:58:54.992Z,14.93
2019-03-19T06:59:45.007Z,12.30
2019-03-19T07:00:34.888Z,16.42
2019-03-19T07:01:24.925Z,17.50
2019-03-19T07:02:14.935Z,14.93
2019-03-19T07:03:05.352Z,16.75
2019-03-19T07:03:54.650Z,12.78
2019-03-19T07:04:44.816Z,14.07
2019-03-19T07:05:35.208Z,15.18
2019-03-19T07:06:25.315Z,14.80
2019-03-19T07:07:15.253Z,17.50
2019-03-19T07:08:05.405Z,14.60
2019-03-19T07:08:55.160Z,14.45
2019-03-19T07:09:44.605Z,14.25
2019-03-19T07:10:34.177Z,12.15
2019-03-19T07:11:23.926Z,15.43
2019-03-19T07:12:13.459Z,13.83
2019-03-19T07:13:04.525Z,12.70
2019-03-19T07:13:55.006Z,13.95
2019-03-19T07:14:45.478Z,13.45
2019-03-19T07:15:35.666Z,15.28
2019-03-19T07:16:25.850Z,12.93
2019-03-19T07:17:15.874Z,13.35
2019-03-19T07:18:06.006Z,13.83
2019-03-19T07:18:56.821Z,14.83
2019-03-19T07:19:46.546Z,17.20
2019-03-19T07:20:36.212Z,15.15
2019-03-19T07:21:26.706Z,14.35
2019-03-19T07:22:16.623Z,14.45
2019-03-19T07:23:06.461Z,14.18
2019-03-19T07:23:57.142Z,15.72
2019-03-19T07:24:48.133Z,14.07
2019-03-19T07:25:37.488Z,17.27
2019-03-19T07:26:28.002Z,12.10
2019-03-19T07:27:18.232Z,15.50
2019-03-19T07:28:08.471Z,12.13
2019-03-19T07:28:57.714Z,14.10
2019-03-19T07:29:47.479Z,12.23
2019-03-19T07:30:37.656Z,16.55
2019-03-19T07:31:31.125Z,13.58
2019-03-19T07:32:18.571Z,15.03
2019-03-19T07:33:08.890Z,16.60
2019-03-19T07:33:58.101Z,14.40
2019-03-19T07:34:47.914Z,15.35
2019-03-19T07:35:38.462Z,13.53
2019-03-19T07:36:28.221Z,13.43
2019-03-19T07:37:18.079Z,12.28
2019-03-19T07:38:07.390Z,14.60
2019-03-19T07:38:58.275Z,13.10
2019-03-19T07:39:48.232Z,16.37
2019-03-19T07:40:37.867Z,14.38
2019-03-19T07:41:28.348Z,15.30
2019-03-19T07:42:17.755Z,13.15
2019-03-19T07:43:07.693Z,13.18
2019-03-19T07:43:57.556Z,13.68
2019-03-19T07:44:47.088Z,13.05
2019-03-19T07:45:36.597Z,11.97
2019-03-19T07:46:26.899Z,14.23
2019-03-19T07:47:17.122Z,12.47
2019-03-19T07:48:06.853Z,12.00
2019-03-19T07:48:56.721Z,12.60
2019-03-19T07:49:46.604Z,16.42
2019-03-19T07:50:36.773Z,16.45
2019-03-19T07:51:26.535Z,14.75
2019-03-19T07:52:16.606Z,15.00
2019-03-19T07:53:06.254Z,12.65
2019-03-19T07:53:55.830Z,16.25
2019-03-19T07:54:45.954Z,14.90
2019-03-19T07:55:35.253Z,15.10
2019-03-19T07:56:26.009Z,13.20
2019-03-19T07:57:16.704Z,15.72
2019-03-19T07:58:06.386Z,13.75
2019-03-19T07:58:56.117Z,14.93
2019-03-19T07:59:46.608Z,12.33
2019-03-19T08:00:36.536Z,11.83
2019-03-19T08:01:26.495Z,15.78
2019-03-19T08:02:16.714Z,14.93
2019-03-19T08:03:15.560Z,14.53
2019-03-19T08:03:56.690Z,14.07
2019-03-19T08:04:46.290Z,14.38
2019-03-19T08:05:37.522Z,13.08
2019-03-19T08:06:27.760Z,13.88
2019-03-19T08:07:18.076Z,11.95
2019-03-19T08:08:08.431Z,15.93
2019-03-19T08:08:58.036Z,13.78
2019-03-19T08:09:48.626Z,13.35
2019-03-19T08:10:38.988Z,15.48
2019-03-19T08:11:28.815Z,14.23
2019-03-19T08:12:18.595Z,14.23
2019-03-19T08:13:07.936Z,15.55
2019-03-19T08:13:58.036Z,14.80
2019-03-19T08:14:47.720Z,14.90
2019-03-19T08:15:37.788Z,17.57
2019-03-19T08:16:27.896Z,14.30
2019-03-19T08:17:17.616Z,12.35
2019-03-19T08:18:07.028Z,15.35
2019-03-19T08:18:56.944Z,13.20
2019-03-19T08:19:46.161Z,16.82
2019-03-19T08:20:36.309Z,16.23
2019-03-19T08:21:25.695Z,13.10
2019-03-19T08:22:15.713Z,12.53
2019-03-19T08:23:04.982Z,13.58
2019-03-19T08:23:55.075Z,13.72
2019-03-19T08:24:44.288Z,12.88
2019-03-19T08:25:34.277Z,13.48
2019-03-19T08:26:24.393Z,15.83
2019-03-19T08:27:14.121Z,17.10
2019-03-19T08:28:03.633Z,12.23
2019-03-19T08:28:55.514Z,14.58
2019-03-19T08:29:43.033Z,15.98
2019-03-19T08:30:32.788Z,14.33
2019-03-19T08:31:22.723Z,13.18
2019-03-19T08:32:12.557Z,16.48
2019-03-19T08:33:02.938Z,13.90
2019-03-19T08:33:52.718Z,12.15
2019-03-19T08:34:42.948Z,14.35
2019-03-19T08:35:33.117Z,12.82
2019-03-19T08:36:23.324Z,11.03
2019-03-19T08:37:15.529Z,15.83
2019-03-19T08:38:03.530Z,13.55
2019-03-19T08:38:53.278Z,12.35
2019-03-19T08:39:43.363Z,11.53
2019-03-19T08:40:33.037Z,11.03
2019-03-19T08:41:25.821Z,17.37
2019-03-19T08:42:16.452Z,13.53
2019-03-19T08:43:05.672Z,12.68
2019-03-19T08:43:56.387Z,12.35
2019-03-19T08:44:45.916Z,15.70
2019-03-19T08:45:35.579Z,11.00
2019-03-19T08:46:25.796Z,11.03
2019-03-19T08:47:15.600Z,11.53
2019-03-19T08:48:05.621Z,13.60
2019-03-19T08:48:55.254Z,11.08
2019-03-19T08:49:45.931Z,13.22
2019-03-19T08:50:36.733Z,15.10
2019-03-19T08:51:26.790Z,14.23
2019-03-19T08:52:16.820Z,10.95
2019-03-19T08:53:06.846Z,13.55
2019-03-19T08:53:56.794Z,13.93
2019-03-19T08:54:46.639Z,11.50
2019-03-19T08:55:36.640Z,11.57
2019-03-19T08:56:26.381Z,12.82
2019-03-19T08:57:16.158Z,13.62
2019-03-19T08:58:06.540Z,11.73
2019-03-19T08:59:05.607Z,9.35
2019-03-19T08:59:47.327Z,11.93
2019-03-19T09:00:36.453Z,9.93
2019-03-19T09:01:26.459Z,12.20
2019-03-19T09:02:15.992Z,12.45
2019-03-19T09:03:06.330Z,14.87
2019-03-19T09:03:56.699Z,11.28
2019-03-19T09:04:46.372Z,10.03
2019-03-19T09:05:36.367Z,9.83
2019-03-19T09:06:25.839Z,11.57
2019-03-19T09:07:16.291Z,13.15
2019-03-19T09:08:05.987Z,11.97
2019-03-19T09:08:56.131Z,9.85
2019-03-19T09:09:47.683Z,9.70
2019-03-19T09:10:37.944Z,10.32
2019-03-19T09:11:27.690Z,15.63
2019-03-19T09:12:17.774Z,11.03
2019-03-19T09:13:07.441Z,16.12
2019-03-19T09:13:57.157Z,9.23
2019-03-19T09:14:47.018Z,10.20
2019-03-19T09:15:37.121Z,11.18
2019-03-19T09:16:26.868Z,10.65
2019-03-19T09:17:16.795Z,9.25
2019-03-19T09:18:06.416Z,12.07
2019-03-19T09:18:56.267Z,9.33
2019-03-19T09:19:46.413Z,12.37
2019-03-19T09:20:36.001Z,7.33
2019-03-19T09:21:26.205Z,9.60
2019-03-19T09:22:15.649Z,8.88
2019-03-19T09:23:05.586Z,9.90
2019-03-19T09:23:55.249Z,9.43
2019-03-19T09:24:45.138Z,11.28
2019-03-19T09:25:34.508Z,11.25
2019-03-19T09:26:26.531Z,11.12
2019-03-19T09:27:16.260Z,9.93
2019-03-19T09:28:06.450Z,11.15
2019-03-19T09:28:55.748Z,11.15
2019-03-19T09:29:45.968Z,8.05
2019-03-19T09:30:35.612Z,7.95
2019-03-19T09:31:25.599Z,10.25
2019-03-19T09:32:15.342Z,8.88
2019-03-19T09:33:04.887Z,11.40
2019-03-19T09:33:54.290Z,10.90
2019-03-19T09:34:43.839Z,11.63
2019-03-19T09:35:34.041Z,10.75
2019-03-19T09:36:23.860Z,11.08
2019-03-19T09:37:14.067Z,8.18
2019-03-19T09:38:03.713Z,9.48
2019-03-19T09:38:54.405Z,8.90
2019-03-19T09:39:43.844Z,11.08
2019-03-19T09:40:33.534Z,8.20
2019-03-19T09:41:23.761Z,8.48
2019-03-19T09:42:13.183Z,11.97
2019-03-19T09:43:02.773Z,7.67
2019-03-19T09:43:53.584Z,6.65
2019-03-19T09:44:42.433Z,8.73
2019-03-19T09:45:32.356Z,7.42
2019-03-19T09:46:22.089Z,8.20
2019-03-19T09:47:12.256Z,7.47
2019-03-19T09:48:01.637Z,6.17
2019-03-19T09:48:51.635Z,8.20
2019-03-19T09:49:41.722Z,7.25
2019-03-19T09:50:31.005Z,9.63
2019-03-19T09:51:20.661Z,8.28
2019-03-19T09:52:10.291Z,6.72
2019-03-19T09:52:59.944Z,7.97
2019-03-19T09:53:49.639Z,5.05
2019-03-19T09:54:39.782Z,5.12
2019-03-19T09:55:30.191Z,9.28
2019-03-19T09:56:20.290Z,11.28
2019-03-19T09:57:10.413Z,8.50
2019-03-19T09:58:00.061Z,7.03
2019-03-19T09:58:50.258Z,9.13
2019-03-19T09:59:43.504Z,11.22
2019-03-19T10:00:29.905Z,15.93
2019-03-19T10:01:20.076Z,12.85
2019-03-19T10:02:10.257Z,75.52
2019-03-19T10:03:00.021Z,92.47
2019-03-19T10:03:51.527Z,21.82
2019-03-19T10:04:39.590Z,91.70
2019-03-19T10:05:29.116Z,28.67
2019-03-19T10:06:19.886Z,9.90
2019-03-19T10:07:09.953Z,20.92
2019-03-19T10:07:59.540Z,41.88
2019-03-19T10:08:49.828Z,18.12
2019-03-19T10:09:39.933Z,8.88
2019-03-19T10:10:30.495Z,6.53
2019-03-19T10:11:19.823Z,10.72
2019-03-19T10:12:09.431Z,9.98
2019-03-19T10:12:59.135Z,11.50
2019-03-19T10:13:48.691Z,8.13
2019-03-19T10:14:38.205Z,10.28
2019-03-19T10:15:28.021Z,9.18
2019-03-19T10:16:17.752Z,11.50
2019-03-19T10:17:08.504Z,9.93
2019-03-19T10:17:58.067Z,9.95
2019-03-19T10:18:47.595Z,7.80
2019-03-19T10:19:37.373Z,6.17
2019-03-19T10:20:27.170Z,12.07
2019-03-19T10:21:16.594Z,9.40
2019-03-19T10:22:06.807Z,9.13
2019-03-19T10:22:56.734Z,7.20
2019-03-19T10:23:46.343Z,8.28
2019-03-19T10:24:36.134Z,9.63
2019-03-19T10:25:25.786Z,8.68
2019-03-19T10:26:15.430Z,8.95
2019-03-19T10:27:05.076Z,10.78
2019-03-19T10:27:55.072Z,9.10
2019-03-19T10:28:44.884Z,9.95
2019-03-19T10:29:38.514Z,9.40
2019-03-19T10:30:23.976Z,9.58
2019-03-19T10:31:13.487Z,10.82
2019-03-19T10:32:03.584Z,7.15
2019-03-19T10:32:53.753Z,8.78
2019-03-19T10:33:43.451Z,11.57
2019-03-19T10:34:34.176Z,9.18
2019-03-19T10:35:24.364Z,6.78
2019-03-19T10:36:13.897Z,7.65
2019-03-19T10:37:04.103Z,5.90
2019-03-19T10:37:54.049Z,7.85
2019-03-19T10:38:43.989Z,9.35
2019-03-19T10:39:33.760Z,8.48
2019-03-19T10:40:23.243Z,10.18
2019-03-19T10:41:13.076Z,12.43
2019-03-19T10:42:02.786Z,9.58
2019-03-19T10:42:52.847Z,7.80
2019-03-19T10:43:42.542Z,10.43
2019-03-19T10:44:32.104Z,6.80
2019-03-19T10:45:21.665Z,8.23
2019-03-19T10:46:11.514Z,10.03
2019-03-19T10:47:02.185Z,10.35
2019-03-19T10:47:52.070Z,27.02
2019-03-19T10:48:41.614Z,11.63
2019-03-19T10:49:31.205Z,23.45
2019-03-19T10:50:21.527Z,12.00
2019-03-19T10:51:11.769Z,8.00
2019-03-19T10:52:02.261Z,8.93
2019-03-19T10:52:51.785Z,10.93
2019-03-19T10:53:41.757Z,10.35
2019-03-19T10:54:32.003Z,10.75
2019-03-19T10:55:21.366Z,13.43
2019-03-19T10:56:11.346Z,8.80
2019-03-19T10:57:00.935Z,7.78
2019-03-19T10:57:51.118Z,9.63
2019-03-19T10:58:41.120Z,8.43
2019-03-19T10:59:31.125Z,9.10
2019-03-19T11:00:20.616Z,8.68
2019-03-19T11:01:10.679Z,9.35
2019-03-19T11:02:00.365Z,10.23
2019-03-19T11:02:50.172Z,7.65
2019-03-19T11:03:40.706Z,11.85
2019-03-19T11:04:30.452Z,11.95
2019-03-19T11:05:20.184Z,10.78
2019-03-19T11:06:09.817Z,8.80
2019-03-19T11:07:01.451Z,8.33